Time;durP1;ratioP1;P1;durP2;ratioP2;P2;SDS_P1;SDS_P2;PMS_P1;PMS_P2;Temp;Humidity;BMP_temperature;BMP_pressure;BME280_temperature;BME280_humidity;BME280_pressure;Samples;Min_cycle;Max_cycle;Signal;HPM_P1;HPM_P2
2023/07/17 11:41:12;;;;;;;4.22;1.08;;;24.20;99.90;;;;;;5060158;22;20065;-72
2023/07/17 11:43:40;;;;;;;3.53;1.00;;;24.20;99.90;;;;;;5014057;28;20621;-72
2023/07/17 11:46:08;;;;;;;4.47;1.02;;;24.10;99.90;;;;;;5017252;28;20041;-72
2023/07/17 11:48:43;;;;;;;2.75;0.88;;;24.20;99.90;;;;;;5018930;28;20049;-71
2023/07/17 11:51:10;;;;;;;3.88;1.10;;;24.50;99.90;;;;;;5018593;28;20021;-72
2023/07/17 11:53:37;;;;;;;1.88;0.90;;;24.50;99.90;;;;;;5016465;28;20374;-72
2023/07/17 11:56:04;;;;;;;3.92;0.75;;;24.50;99.90;;;;;;4999717;28;20029;-72
2023/07/17 11:58:35;;;;;;;3.20;0.70;;;24.40;99.90;;;;;;4998220;28;20029;-73
2023/07/17 12:01:02;;;;;;;4.60;1.20;;;24.30;99.90;;;;;;5014658;28;20033;-73
2023/07/17 12:03:29;;;;;;;4.28;0.90;;;24.10;99.90;;;;;;5033290;28;21631;-73
2023/07/17 12:05:55;;;;;;;2.30;0.85;;;23.80;99.90;;;;;;5020220;28;20038;-72
2023/07/17 12:08:21;;;;;;;2.63;1.13;;;23.50;99.90;;;;;;5004385;28;20030;-72
2023/07/17 12:10:48;;;;;;;4.30;1.00;;;23.20;99.90;;;;;;5019484;28;20025;-72
2023/07/17 12:13:14;;;;;;;2.90;0.85;;;23.00;99.90;;;;;;4983858;28;20045;-72
2023/07/17 12:15:41;;;;;;;4.38;1.38;;;23.00;99.90;;;;;;5015074;28;20037;-73
2023/07/17 12:18:07;;;;;;;4.03;1.20;;;23.00;99.90;;;;;;5016542;28;20041;-73
2023/07/17 12:20:33;;;;;;;4.68;1.98;;;23.10;99.90;;;;;;5013874;28;20029;-74
2023/07/17 12:23:00;;;;;;;6.15;1.95;;;23.10;99.90;;;;;;5013217;28;20361;-74
2023/07/17 12:25:28;;;;;;;5.13;2.63;;;23.00;99.90;;;;;;4998803;28;20030;-73
2023/07/17 12:27:59;;;;;;;5.28;1.60;;;23.00;99.90;;;;;;5017063;28;20029;-74
2023/07/17 12:30:25;;;;;;;6.28;1.90;;;23.10;99.90;;;;;;5016427;28;20357;-74
2023/07/17 12:32:51;;;;;;;4.70;1.90;;;23.40;99.90;;;;;;5001460;28;20029;-74
2023/07/17 12:35:18;;;;;;;4.47;2.30;;;23.70;99.90;;;;;;4981836;28;20034;-74
2023/07/17 12:37:44;;;;;;;4.93;1.95;;;23.60;99.90;;;;;;5013589;28;20033;-74
2023/07/17 12:40:11;;;;;;;5.72;2.33;;;23.30;99.90;;;;;;5014706;28;20709;-73
2023/07/17 12:42:39;;;;;;;7.63;2.70;;;23.30;99.90;;;;;;5004353;28;20457;-73
2023/07/17 12:45:06;;;;;;;6.57;2.42;;;23.70;99.90;;;;;;5015149;28;20038;-73
2023/07/17 12:47:32;;;;;;;8.88;2.28;;;24.30;99.90;;;;;;4966211;28;20049;-73
2023/07/17 12:49:58;;;;;;;4.10;1.30;;;24.70;99.90;;;;;;4994723;28;20042;-73
2023/07/17 12:52:26;;;;;;;5.55;1.85;;;25.00;99.90;;;;;;4997283;28;20508;-73
2023/07/17 12:54:52;;;;;;;4.60;1.73;;;24.90;99.90;;;;;;5014928;28;20026;-74
2023/07/17 12:57:19;;;;;;;14.45;3.20;;;24.80;99.90;;;;;;5013202;28;20437;-73
2023/07/17 12:59:45;;;;;;;6.43;2.72;;;25.50;99.90;;;;;;5012582;28;20044;-74
2023/07/17 13:02:12;;;;;;;5.05;2.15;;;26.10;98.70;;;;;;5011281;28;20038;-74
2023/07/17 13:04:39;;;;;;;4.50;2.30;;;26.30;98.30;;;;;;5011562;28;20045;-74
2023/07/17 13:07:05;;;;;;;7.03;2.47;;;26.50;97.00;;;;;;5000442;28;20065;-74
2023/07/17 13:09:32;;;;;;;6.93;2.47;;;26.20;96.80;;;;;;5015679;28;20021;-74
2023/07/17 13:11:58;;;;;;;5.78;2.28;;;25.70;97.10;;;;;;4999023;28;20034;-74
2023/07/17 13:14:24;;;;;;;6.18;2.20;;;25.00;97.50;;;;;;5013424;28;20057;-73
2023/07/17 13:16:50;;;;;;;5.57;2.22;;;24.40;98.20;;;;;;4997684;28;20034;-74
2023/07/17 13:19:18;;;;;;;5.90;2.15;;;23.90;98.90;;;;;;4985234;28;20037;-72
2023/07/17 13:21:45;;;;;;;5.97;1.95;;;23.30;99.90;;;;;;5012347;28;20029;-72
2023/07/17 13:24:11;;;;;;;11.65;2.60;;;21.90;99.90;;;;;;5010860;28;20013;-74
2023/07/17 13:26:37;;;;;;;29.60;2.67;;;20.60;99.90;;;;;;5015303;28;20025;-73
2023/07/17 13:29:07;;;;;;;5.45;1.80;;;19.60;99.90;;;;;;4999474;28;20041;-74
2023/07/17 13:31:34;;;;;;;5.43;2.47;;;19.00;99.90;;;;;;5013542;28;20030;-75
2023/07/17 13:34:00;;;;;;;7.30;3.17;;;18.70;99.90;;;;;;5014636;28;20064;-74
2023/07/17 13:36:27;;;;;;;6.45;3.25;;;18.80;99.90;;;;;;5010007;28;20033;-74
2023/07/17 13:38:53;;;;;;;8.82;3.55;;;19.00;99.90;;;;;;4996662;28;20552;-74
2023/07/17 13:41:46;;;;;;;6.95;3.67;;;19.10;99.90;;;;;;5010252;28;20045;-74
2023/07/17 13:44:14;;;;;;;8.77;3.20;;;19.10;99.90;;;;;;4995494;28;20018;-75
2023/07/17 13:51:09;;;;;;;7.05;3.58;;;18.90;99.90;;;;;;5013900;28;20484;-75
2023/07/17 13:53:36;;;;;;;5.10;3.30;;;18.60;99.90;;;;;;5014194;28;20692;-75
2023/07/17 13:56:03;;;;;;;7.88;4.50;;;18.50;99.90;;;;;;4999133;28;20037;-76
2023/07/17 13:58:29;;;;;;;8.18;3.72;;;18.40;99.90;;;;;;5012894;28;20029;-75
2023/07/17 14:00:55;;;;;;;7.28;3.58;;;18.30;99.90;;;;;;5015849;28;20041;-76
2023/07/17 14:03:21;;;;;;;7.70;3.40;;;18.30;99.90;;;;;;5032183;28;20044;-75
2023/07/17 14:05:48;;;;;;;4.47;2.90;;;18.30;99.90;;;;;;4997903;28;20036;-75
2023/07/17 14:08:14;;;;;;;5.43;3.42;;;18.20;99.90;;;;;;5015408;28;20464;-75
2023/07/17 14:10:41;;;;;;;5.18;2.80;;;18.20;99.90;;;;;;5034410;28;20076;-75
2023/07/17 14:20:26;;;;;;;5.53;2.80;;;18.50;99.90;;;;;;5014402;28;20025;-75
2023/07/17 14:27:32;;;;;;;6.45;3.80;;;18.60;99.90;;;;;;5010268;28;20372;-74
2023/07/17 14:34:45;;;;;;;5.50;3.10;;;18.70;99.90;;;;;;5010206;28;20037;-72
2023/07/17 14:37:50;;;;;;;3.50;2.50;;;18.80;99.90;;;;;;4967110;28;20069;-74
2023/07/17 14:40:56;;;;;;;5.20;2.97;;;18.80;99.90;;;;;;4998395;28;20642;-74
2023/07/17 14:47:52;;;;;;;6.57;3.53;;;19.00;99.90;;;;;;5016444;28;20400;-73
2023/07/17 14:59:10;;;;;;;8.02;2.33;;;19.20;99.90;;;;;;5015747;28;20057;-74
2023/07/17 15:01:36;;;;;;;6.32;3.17;;;19.10;99.90;;;;;;4991128;28;20029;-74
2023/07/17 15:04:03;;;;;;;5.78;2.92;;;19.20;99.90;;;;;;5016339;28;20494;-75
2023/07/17 15:06:29;;;;;;;4.95;2.47;;;19.20;99.90;;;;;;5014547;28;20022;-74
2023/07/17 15:08:55;;;;;;;3.47;2.40;;;19.30;99.90;;;;;;5015811;28;20025;-75
2023/07/17 15:11:24;;;;;;;6.75;3.95;;;19.50;99.90;;;;;;5015913;28;20075;-74
2023/07/17 15:13:51;;;;;;;5.55;3.22;;;19.60;99.90;;;;;;5017716;28;20036;-74
2023/07/17 15:16:17;;;;;;;7.85;5.03;;;19.70;99.90;;;;;;5002188;28;20037;-76
2023/07/17 15:18:43;;;;;;;7.00;4.70;;;20.10;99.90;;;;;;5016985;28;20029;-75
2023/07/17 15:21:10;;;;;;;7.10;4.25;;;20.40;99.90;;;;;;5012994;28;20029;-73
2023/07/17 15:23:36;;;;;;;7.05;3.80;;;20.90;99.90;;;;;;5015079;28;20034;-73
2023/07/17 15:26:02;;;;;;;7.57;4.05;;;21.30;99.90;;;;;;5015359;28;20029;-73
2023/07/17 15:28:29;;;;;;;6.88;3.47;;;21.70;99.90;;;;;;5002261;28;20040;-73
2023/07/17 15:30:55;;;;;;;5.60;3.38;;;21.60;99.90;;;;;;5016975;28;20038;-73
2023/07/17 15:33:25;;;;;;;5.43;3.10;;;21.30;99.90;;;;;;5016116;28;20036;-72
2023/07/17 15:35:52;;;;;;;5.78;3.10;;;20.90;99.90;;;;;;5015316;28;20033;-73
2023/07/17 15:38:18;;;;;;;4.70;2.85;;;20.60;99.90;;;;;;5013883;28;20034;-73
2023/07/17 15:40:45;;;;;;;5.22;3.22;;;20.40;99.90;;;;;;4999987;28;20044;-73
2023/07/17 15:43:11;;;;;;;6.63;3.30;;;20.20;99.90;;;;;;4973894;28;20286;-73
2023/07/17 15:45:37;;;;;;;7.13;3.70;;;20.10;99.90;;;;;;5015832;28;20196;-72
2023/07/17 15:48:04;;;;;;;6.22;3.10;;;20.10;99.90;;;;;;4999880;28;20034;-73
2023/07/17 15:50:30;;;;;;;4.82;3.03;;;20.30;99.90;;;;;;4985973;28;20033;-73
2023/07/17 15:52:56;;;;;;;5.00;3.40;;;20.80;99.90;;;;;;4999712;28;20029;-73
2023/07/17 15:55:23;;;;;;;5.15;3.45;;;21.10;99.90;;;;;;5000208;28;20377;-73
2023/07/17 15:57:49;;;;;;;4.90;3.00;;;21.20;99.90;;;;;;5002919;28;20033;-73
2023/07/17 16:00:16;;;;;;;5.18;3.50;;;21.20;99.90;;;;;;5015842;28;20038;-73
2023/07/17 16:02:42;;;;;;;6.70;3.42;;;21.00;99.90;;;;;;5002390;28;20025;-73
2023/07/17 16:05:09;;;;;;;8.77;3.30;;;20.80;99.90;;;;;;5017799;28;20048;-73
2023/07/17 16:07:35;;;;;;;6.10;3.63;;;20.60;99.90;;;;;;5008337;28;20376;-73
2023/07/17 16:10:01;;;;;;;6.93;3.13;;;20.60;99.90;;;;;;5006922;28;20037;-73
2023/07/17 16:12:28;;;;;;;6.00;3.10;;;20.80;99.90;;;;;;4981609;28;20464;-73
2023/07/17 16:14:54;;;;;;;4.28;2.75;;;20.90;99.90;;;;;;4988810;28;20036;-73
2023/07/17 16:17:21;;;;;;;5.35;2.53;;;21.00;99.90;;;;;;5016945;28;20013;-74
2023/07/17 16:19:48;;;;;;;5.05;2.63;;;21.00;99.90;;;;;;5016397;28;20033;-73
2023/07/17 16:22:15;;;;;;;5.85;3.22;;;21.00;99.90;;;;;;4999911;28;20041;-75
2023/07/17 16:24:42;;;;;;;6.22;3.42;;;20.90;99.90;;;;;;4997536;28;20041;-76
2023/07/17 16:27:08;;;;;;;5.82;3.20;;;20.70;99.90;;;;;;5005943;28;20072;-74
2023/07/17 16:29:35;;;;;;;4.30;2.42;;;20.50;99.90;;;;;;5001082;28;20282;-74
2023/07/17 16:32:01;;;;;;;4.07;2.08;;;20.20;99.90;;;;;;4997045;28;20037;-75
2023/07/17 16:34:27;;;;;;;5.72;2.83;;;20.00;99.90;;;;;;5014582;28;20025;-75
2023/07/17 16:36:53;;;;;;;5.55;2.15;;;19.80;99.90;;;;;;4997476;28;20345;-75
2023/07/17 16:39:39;;;;;;;4.78;2.60;;;19.70;99.90;;;;;;5013400;28;20052;-73
2023/07/17 16:42:06;;;;;;;4.85;2.10;;;19.50;99.90;;;;;;5020827;28;20045;-73
2023/07/17 16:44:33;;;;;;;3.53;1.98;;;19.50;99.90;;;;;;5017687;28;20049;-73
2023/07/17 16:46:59;;;;;;;3.53;1.90;;;19.40;99.90;;;;;;5016588;28;20037;-73
2023/07/17 16:49:25;;;;;;;3.85;1.70;;;19.30;99.90;;;;;;5006710;28;20033;-73
2023/07/17 16:51:52;;;;;;;4.15;2.63;;;19.20;99.90;;;;;;5016130;28;20045;-73
2023/07/17 16:54:18;;;;;;;5.07;2.65;;;19.20;99.90;;;;;;5015145;28;20029;-73
2023/07/17 16:56:47;;;;;;;4.25;2.67;;;19.10;99.90;;;;;;4999351;28;20030;-73
2023/07/17 16:59:17;;;;;;;6.13;2.20;;;19.10;99.90;;;;;;5016587;28;20662;-73
2023/07/17 17:01:43;;;;;;;3.45;1.73;;;19.10;99.90;;;;;;5013422;28;20040;-75
2023/07/17 17:04:10;;;;;;;3.88;1.40;;;19.00;99.90;;;;;;4969397;28;20033;-75
2023/07/17 17:06:36;;;;;;;3.42;1.70;;;18.90;99.90;;;;;;5001519;28;20496;-75
2023/07/17 17:09:17;;;;;;;3.25;1.55;;;18.90;99.90;;;;;;4998756;28;20029;-75
2023/07/17 17:11:43;;;;;;;2.38;0.93;;;18.80;99.90;;;;;;5012539;28;20037;-76
2023/07/17 17:14:10;;;;;;;3.58;1.17;;;18.80;99.90;;;;;;4997964;28;20033;-74
2023/07/17 17:16:36;;;;;;;3.55;1.13;;;18.80;99.90;;;;;;5011743;28;20522;-73
2023/07/17 17:19:03;;;;;;;2.33;0.73;;;18.70;99.90;;;;;;5028329;28;20037;-71
2023/07/17 17:21:31;;;;;;;4.55;0.77;;;18.70;99.90;;;;;;5010795;28;20048;-72
2023/07/17 17:23:58;;;;;;;4.47;1.13;;;18.60;99.90;;;;;;4996936;28;20461;-74
2023/07/17 17:26:24;;;;;;;2.53;0.80;;;18.60;99.90;;;;;;5009129;28;20021;-74
2023/07/17 17:28:50;;;;;;;1.73;0.70;;;18.60;99.90;;;;;;4998407;28;20040;-75
2023/07/17 17:31:17;;;;;;;3.17;1.38;;;18.60;99.90;;;;;;5013767;28;20044;-75
2023/07/17 17:33:44;;;;;;;4.38;1.50;;;18.50;99.90;;;;;;4997683;28;20048;-74
2023/07/17 17:36:10;;;;;;;4.63;2.22;;;18.50;99.90;;;;;;4997885;28;20021;-74
2023/07/17 17:38:37;;;;;;;3.83;1.92;;;18.50;99.90;;;;;;5014369;28;20054;-75
2023/07/17 17:41:04;;;;;;;3.10;1.35;;;18.50;99.90;;;;;;5015437;28;20033;-75
2023/07/17 17:43:31;;;;;;;4.65;1.60;;;18.50;99.90;;;;;;5002004;28;20042;-75
2023/07/17 17:45:57;;;;;;;2.80;0.95;;;18.50;99.90;;;;;;5010196;28;20040;-74
2023/07/17 17:48:24;;;;;;;2.80;0.80;;;18.50;99.90;;;;;;4991384;28;20037;-74
2023/07/17 17:50:51;;;;;;;2.70;0.82;;;18.40;99.90;;;;;;5014392;28;20052;-74
2023/07/17 17:53:17;;;;;;;4.05;0.82;;;18.40;99.90;;;;;;4995421;28;20030;-75
2023/07/17 17:55:43;;;;;;;4.75;1.02;;;18.40;99.90;;;;;;5012544;28;20025;-72
2023/07/17 17:58:10;;;;;;;4.38;0.80;;;18.40;99.90;;;;;;5015443;28;20040;-72
2023/07/17 18:00:36;;;;;;;2.65;0.70;;;18.30;99.90;;;;;;5015956;28;20037;-71
2023/07/17 18:03:03;;;;;;;2.50;0.90;;;18.30;99.90;;;;;;5000602;28;20044;-71
2023/07/17 18:05:30;;;;;;;2.78;0.60;;;18.30;99.90;;;;;;5002928;28;20428;-72
2023/07/17 18:07:58;;;;;;;2.92;0.68;;;18.20;99.90;;;;;;5011634;28;20037;-72
2023/07/17 18:10:24;;;;;;;5.35;0.75;;;18.20;99.90;;;;;;4996056;28;20029;-72
2023/07/17 18:12:51;;;;;;;2.42;0.82;;;18.20;99.90;;;;;;5009042;28;20033;-72
2023/07/17 18:15:17;;;;;;;3.13;0.60;;;18.20;99.90;;;;;;4995622;28;20044;-72
2023/07/17 18:17:44;;;;;;;1.55;0.60;;;18.20;99.90;;;;;;5009949;28;20472;-73
2023/07/17 18:20:10;;;;;;;3.40;0.70;;;18.10;99.90;;;;;;4995837;28;20493;-73
2023/07/17 18:22:37;;;;;;;3.40;0.80;;;18.10;99.90;;;;;;4978504;28;20443;-74
2023/07/17 18:25:05;;;;;;;2.55;0.68;;;18.10;99.90;;;;;;5014377;28;20042;-73
2023/07/17 18:27:33;;;;;;;3.38;0.60;;;18.00;99.90;;;;;;5000007;28;20029;-73
2023/07/17 18:29:59;;;;;;;2.28;0.70;;;18.00;99.90;;;;;;5010991;28;20037;-74
2023/07/17 18:32:25;;;;;;;1.88;0.57;;;18.00;99.90;;;;;;4992223;28;20545;-73
2023/07/17 18:34:52;;;;;;;2.17;0.55;;;17.90;99.90;;;;;;5013288;28;20022;-73
2023/07/17 18:37:18;;;;;;;2.00;0.40;;;17.90;99.90;;;;;;5013305;28;20022;-73
2023/07/17 18:39:44;;;;;;;1.35;0.35;;;17.90;99.90;;;;;;5012993;28;20034;-73
2023/07/17 18:42:11;;;;;;;2.08;0.60;;;17.80;99.90;;;;;;4986549;28;20041;-73
2023/07/17 18:44:37;;;;;;;2.17;0.50;;;17.80;99.90;;;;;;5000010;28;20060;-73
2023/07/17 18:47:03;;;;;;;2.50;0.40;;;17.80;99.90;;;;;;5002482;28;20053;-73
2023/07/17 18:49:30;;;;;;;2.20;0.45;;;17.70;99.90;;;;;;4982305;28;20029;-73
2023/07/17 18:51:58;;;;;;;2.63;0.47;;;17.70;99.90;;;;;;5011723;28;20208;-73
2023/07/17 18:54:24;;;;;;;2.17;0.40;;;17.60;99.90;;;;;;5015166;28;20040;-73
2023/07/17 18:56:51;;;;;;;2.28;0.60;;;17.50;99.90;;;;;;5019345;28;20377;-73
2023/07/17 18:59:19;;;;;;;1.92;0.50;;;17.50;99.90;;;;;;4997185;28;20523;-73
2023/07/17 19:01:51;;;;;;;2.47;0.40;;;17.50;99.90;;;;;;5013064;28;20041;-73
2023/07/17 19:04:18;;;;;;;3.60;0.43;;;17.40;99.90;;;;;;5014871;28;20033;-73
2023/07/17 19:06:46;;;;;;;1.67;0.50;;;17.30;99.90;;;;;;5000193;28;20492;-73
2023/07/17 19:09:13;;;;;;;1.10;0.40;;;17.30;99.90;;;;;;5013333;28;20517;-74
2023/07/17 19:11:39;;;;;;;1.75;0.52;;;17.20;99.90;;;;;;5015690;28;20025;-74
2023/07/17 19:14:06;;;;;;;2.55;0.70;;;17.10;99.90;;;;;;4996096;28;20135;-73
2023/07/17 19:16:32;;;;;;;4.20;1.17;;;17.10;99.90;;;;;;5012638;28;20022;-74
2023/07/17 19:18:58;;;;;;;2.72;0.70;;;17.10;99.90;;;;;;5000766;28;20021;-74
2023/07/17 19:21:25;;;;;;;1.70;0.47;;;17.00;99.90;;;;;;5010057;28;20112;-74
2023/07/17 19:23:51;;;;;;;2.17;0.60;;;17.00;99.90;;;;;;5006101;28;20026;-73
2023/07/17 19:26:17;;;;;;;3.50;0.50;;;16.90;99.90;;;;;;4999266;28;20029;-73
2023/07/17 19:28:44;;;;;;;2.05;0.60;;;16.80;99.90;;;;;;4985046;28;20030;-73
2023/07/17 19:31:11;;;;;;;2.47;0.70;;;16.80;99.90;;;;;;4995800;28;20045;-73
2023/07/17 19:33:38;;;;;;;3.53;0.93;;;16.70;99.90;;;;;;4997943;28;20040;-73
2023/07/17 19:36:04;;;;;;;2.20;0.57;;;16.60;99.90;;;;;;5014050;28;20033;-73
2023/07/17 19:38:32;;;;;;;2.00;0.60;;;16.60;99.90;;;;;;5007788;28;20372;-72
2023/07/17 19:41:00;;;;;;;1.80;0.57;;;16.50;99.90;;;;;;5013819;28;20046;-73
2023/07/17 19:43:27;;;;;;;1.30;0.40;;;16.50;99.90;;;;;;5004193;28;20033;-73
2023/07/17 19:45:55;;;;;;;2.97;0.55;;;16.40;99.90;;;;;;5013752;28;20029;-72
2023/07/17 19:48:21;;;;;;;2.85;0.60;;;16.40;99.90;;;;;;5000937;28;20033;-74
2023/07/17 19:50:48;;;;;;;2.13;0.55;;;16.30;99.90;;;;;;5004342;28;20837;-73
2023/07/17 19:53:15;;;;;;;2.80;0.50;;;16.30;99.90;;;;;;4996930;28;20028;-73
2023/07/17 19:55:42;;;;;;;2.15;0.50;;;16.30;99.90;;;;;;5015624;28;20032;-72
2023/07/17 19:58:09;;;;;;;2.45;0.50;;;16.20;99.90;;;;;;5014130;28;20060;-74
2023/07/17 20:00:35;;;;;;;2.15;0.70;;;16.20;99.90;;;;;;5013680;28;20025;-73
2023/07/17 20:03:02;;;;;;;4.57;1.20;;;16.10;99.90;;;;;;4993968;28;20043;-74
2023/07/17 20:05:29;;;;;;;3.75;1.00;;;16.10;99.90;;;;;;5006963;28;20033;-73
2023/07/17 20:07:56;;;;;;;2.42;1.05;;;16.00;99.90;;;;;;5017724;28;20033;-73
2023/07/17 20:10:23;;;;;;;5.15;2.90;;;15.90;99.90;;;;;;5015133;28;20392;-74
2023/07/17 20:12:49;;;;;;;8.70;4.97;;;15.90;99.90;;;;;;5001363;28;20048;-74
2023/07/17 20:15:18;;;;;;;8.63;5.47;;;15.80;99.90;;;;;;4979271;28;20045;-74
2023/07/17 20:17:45;;;;;;;7.03;4.05;;;15.80;99.90;;;;;;5014769;28;20045;-73
2023/07/17 20:20:14;;;;;;;5.13;2.63;;;15.70;99.90;;;;;;5015014;28;20036;-73
2023/07/17 20:22:41;;;;;;;4.93;2.78;;;15.70;99.90;;;;;;5023365;28;20021;-73
2023/07/17 20:25:09;;;;;;;3.88;1.85;;;15.70;99.90;;;;;;5018536;28;20022;-73
2023/07/17 20:27:39;;;;;;;4.82;1.83;;;15.60;99.90;;;;;;5003620;28;20507;-74
2023/07/17 20:30:10;;;;;;;3.10;1.52;;;15.60;99.90;;;;;;5015388;28;20033;-75
2023/07/17 20:32:37;;;;;;;2.72;1.67;;;15.60;99.90;;;;;;5015650;28;20033;-75
2023/07/17 20:35:03;;;;;;;3.22;1.30;;;15.50;99.90;;;;;;5003063;28;20033;-73
2023/07/17 20:37:30;;;;;;;2.20;0.70;;;15.50;99.90;;;;;;5025217;28;20518;-74
2023/07/17 20:43:19;;;;;;;2.55;0.60;;;15.50;99.90;;;;;;5045474;22;20051;-74
2023/07/17 20:47:02;;;;;;;1.70;0.70;;;15.50;99.90;;;;;;5059945;28;20043;-74
2023/07/17 20:50:45;;;;;;;2.25;0.70;;;15.40;99.90;;;;;;5054556;28;20037;-76
2023/07/17 20:54:27;;;;;;;2.67;0.90;;;15.30;99.90;;;;;;5064352;28;20040;-75
2023/07/17 20:58:09;;;;;;;2.22;0.95;;;15.30;99.90;;;;;;5068901;28;20302;-74
2023/07/17 21:01:52;;;;;;;5.20;1.40;;;15.30;99.90;;;;;;5060121;28;20036;-75
2023/07/17 21:05:33;;;;;;;3.50;1.20;;;15.20;99.90;;;;;;5059999;28;20052;-73
2023/07/17 21:09:42;;;;;;;2.33;1.30;;;15.20;99.90;;;;;;5060380;28;20259;-73
2023/07/17 21:13:50;;;;;;;3.17;1.10;;;15.10;99.90;;;;;;5061929;28;20044;-73
2023/07/17 21:17:57;;;;;;;1.85;0.90;;;15.10;99.90;;;;;;5063187;28;20109;-74
2023/07/17 21:22:05;;;;;;;2.78;0.50;;;15.00;99.90;;;;;;5057574;28;20511;-74
2023/07/17 21:26:12;;;;;;;1.42;0.73;;;15.00;99.90;;;;;;5059649;28;20040;-73
2023/07/17 21:30:20;;;;;;;4.57;0.93;;;14.90;99.90;;;;;;5067581;28;20047;-73
2023/07/17 21:34:27;;;;;;;2.20;0.65;;;14.90;99.90;;;;;;5062049;28;20047;-73
2023/07/17 21:38:34;;;;;;;1.60;0.50;;;14.80;99.90;;;;;;5061138;28;20064;-72
2023/07/17 21:42:41;;;;;;;3.15;0.40;;;14.70;99.90;;;;;;5055929;28;20064;-72
2023/07/17 21:46:49;;;;;;;2.97;0.47;;;14.70;99.90;;;;;;5061057;28;20055;-73
2023/07/17 21:50:57;;;;;;;3.28;0.60;;;14.70;99.90;;;;;;5051547;28;20392;-73
2023/07/17 21:55:10;;;;;;;2.50;0.60;;;14.60;99.90;;;;;;5059052;28;20052;-72
2023/07/17 21:59:18;;;;;;;4.72;0.50;;;14.60;99.90;;;;;;5058181;28;20048;-73
2023/07/17 22:03:27;;;;;;;1.98;0.40;;;14.60;99.90;;;;;;5056327;28;20044;-74
2023/07/17 22:07:34;;;;;;;3.80;0.80;;;14.60;99.90;;;;;;5059977;28;20529;-73
2023/07/17 22:11:42;;;;;;;6.32;0.60;;;14.50;99.90;;;;;;5051868;28;20044;-73
2023/07/17 22:15:49;;;;;;;4.22;0.50;;;14.50;99.90;;;;;;5054541;28;20051;-72
2023/07/17 22:19:57;;;;;;;2.13;0.40;;;14.50;99.90;;;;;;5055979;28;20085;-73
2023/07/17 22:24:04;;;;;;;3.10;0.70;;;14.40;99.90;;;;;;5062244;28;20506;-72
2023/07/17 22:28:12;;;;;;;2.05;0.50;;;14.40;99.90;;;;;;5057154;28;20056;-73
2023/07/17 22:32:20;;;;;;;1.98;0.40;;;14.40;99.90;;;;;;5057943;28;20052;-73
2023/07/17 22:36:27;;;;;;;3.15;0.40;;;14.30;99.90;;;;;;5050558;28;20040;-73
2023/07/17 22:45:02;;;;;;;2.45;0.30;;;14.30;99.90;;;;;;5049900;28;20067;-72
2023/07/17 22:49:10;;;;;;;1.55;0.30;;;14.30;99.90;;;;;;5052633;28;20048;-73
2023/07/17 22:53:17;;;;;;;2.78;0.40;;;14.30;99.90;;;;;;5050296;28;20043;-73
2023/07/17 22:57:24;;;;;;;2.97;0.40;;;14.20;99.90;;;;;;5051655;28;20048;-73
2023/07/17 23:00:41;;;;;;;1.60;0.30;;;14.20;99.90;;;;;;5066140;22;20048;-72
2023/07/17 23:03:08;;;;;;;3.90;0.40;;;14.20;99.90;;;;;;5033094;28;20487;-72
2023/07/17 23:05:34;;;;;;;2.80;0.40;;;14.20;99.90;;;;;;5054633;28;20040;-74
2023/07/17 23:08:01;;;;;;;2.38;0.47;;;14.20;99.90;;;;;;5056500;28;20032;-74
2023/07/17 23:10:27;;;;;;;2.40;0.50;;;14.20;99.90;;;;;;5055727;28;20021;-74
2023/07/17 23:12:54;;;;;;;2.33;0.80;;;14.20;99.90;;;;;;5052892;28;20041;-74
2023/07/17 23:15:20;;;;;;;3.58;0.77;;;14.20;99.90;;;;;;5017846;28;20395;-76
2023/07/17 23:17:49;;;;;;;2.83;0.70;;;14.20;99.90;;;;;;5051103;28;20036;-75
2023/07/17 23:20:16;;;;;;;3.10;0.75;;;14.20;99.90;;;;;;5038121;28;20430;-76
2023/07/17 23:22:46;;;;;;;4.80;1.42;;;14.20;99.90;;;;;;5055804;28;20028;-75
2023/07/17 23:25:13;;;;;;;3.67;0.80;;;14.30;99.90;;;;;;5037837;28;20033;-75
2023/07/17 23:27:39;;;;;;;2.95;0.95;;;14.30;99.90;;;;;;5018772;28;20021;-77
2023/07/17 23:30:06;;;;;;;2.15;0.80;;;14.30;99.90;;;;;;5055763;28;20051;-76
2023/07/17 23:32:35;;;;;;;3.88;1.00;;;14.30;99.90;;;;;;5054134;28;20044;-76
2023/07/17 23:35:03;;;;;;;2.17;0.50;;;14.30;99.90;;;;;;5055025;28;20029;-72
2023/07/17 23:37:31;;;;;;;2.50;0.60;;;14.30;99.90;;;;;;5036551;28;20044;-73
2023/07/17 23:40:01;;;;;;;1.77;0.47;;;14.40;99.90;;;;;;5058885;28;20032;-73
2023/07/17 23:42:31;;;;;;;3.92;0.50;;;14.40;99.90;;;;;;5035757;28;20028;-73
2023/07/17 23:45:01;;;;;;;4.97;0.80;;;14.40;99.90;;;;;;5037269;28;21310;-73
2023/07/17 23:47:29;;;;;;;3.05;0.52;;;14.40;99.90;;;;;;5035815;28;20555;-72
2023/07/17 23:49:55;;;;;;;4.95;0.60;;;14.40;99.90;;;;;;5055094;28;20035;-73
2023/07/17 23:52:22;;;;;;;2.25;0.50;;;14.40;99.90;;;;;;5035824;28;20033;-73
2023/07/17 23:54:49;;;;;;;3.10;0.50;;;14.40;99.90;;;;;;5054981;28;20025;-73
2023/07/17 23:57:16;;;;;;;3.83;0.60;;;14.40;99.90;;;;;;5034277;28;20843;-72
2023/07/17 23:59:43;;;;;;;3.17;0.50;;;14.40;99.90;;;;;;5034092;28;20021;-73
